Time;durP1;ratioP1;P1;durP2;ratioP2;P2;SDS_P1;SDS_P2;PMS_P1;PMS_P2;Temp;Humidity;BMP_temperature;BMP_pressure;BME280_temperature;BME280_humidity;BME280_pressure;Samples;Min_cycle;Max_cycle;Signal;HPM_P1;HPM_P2
2022/11/30 00:01:19;;;;;;;107.78;51.17;;;;;;;2.32;70.71;101639.16;6151168;23;20383;-73
2022/11/30 00:03:45;;;;;;;101.72;52.78;;;;;;;2.52;70.65;101648.66;6150107;23;20104;-73
2022/11/30 00:06:14;;;;;;;101.28;52.60;;;;;;;2.39;70.35;101637.88;6150155;23;20477;-73
2022/11/30 00:08:41;;;;;;;104.85;52.63;;;;;;;2.30;71.18;101647.19;6151738;23;20041;-73
2022/11/30 00:11:17;;;;;;;105.78;52.25;;;;;;;2.65;70.07;101644.38;6149511;23;20028;-72
2022/11/30 00:13:44;;;;;;;108.30;51.90;;;;;;;2.42;70.62;101651.81;6150167;23;20026;-73
2022/11/30 00:16:10;;;;;;;109.97;51.80;;;;;;;2.39;70.55;101638.75;6151205;23;20047;-72
2022/11/30 00:18:37;;;;;;;109.53;51.97;;;;;;;2.21;70.64;101642.41;6150882;23;20021;-73
2022/11/30 00:21:10;;;;;;;112.07;51.47;;;;;;;2.24;71.42;101639.59;6150165;23;20036;-72
2022/11/30 00:23:38;;;;;;;109.85;52.53;;;;;;;2.29;70.65;101641.97;6150021;23;20092;-73
2022/11/30 00:26:08;;;;;;;112.47;53.42;;;;;;;2.46;70.11;101644.56;6151202;23;20018;-72
2022/11/30 00:28:36;;;;;;;107.82;52.50;;;;;;;2.48;70.03;101652.41;6148343;23;20104;-73
2022/11/30 00:31:05;;;;;;;105.93;52.80;;;;;;;2.48;70.17;101655.94;6153353;23;20354;-72
2022/11/30 00:33:34;;;;;;;108.40;53.70;;;;;;;2.49;70.04;101654.13;6152224;23;20048;-72
2022/11/30 00:36:03;;;;;;;103.55;50.90;;;;;;;2.15;70.89;101651.53;6152150;23;20101;-72
2022/11/30 00:38:33;;;;;;;104.20;52.03;;;;;;;2.19;70.96;101646.91;6153078;23;20051;-72
2022/11/30 00:41:00;;;;;;;109.80;52.17;;;;;;;2.19;70.65;101653.06;6153160;23;20013;-72
2022/11/30 00:43:27;;;;;;;111.05;54.28;;;;;;;2.38;70.53;101646.78;6151943;23;20361;-73
2022/11/30 00:45:54;;;;;;;110.28;52.45;;;;;;;2.26;70.70;101637.69;6153011;23;20049;-73
2022/11/30 00:48:20;;;;;;;114.18;52.97;;;;;;;2.31;70.62;101640.97;6154085;23;20032;-73
2022/11/30 00:50:48;;;;;;;110.78;53.40;;;;;;;2.45;70.07;101639.34;6151751;23;20493;-73
2022/11/30 00:53:15;;;;;;;112.55;54.00;;;;;;;2.37;69.67;101643.28;6152435;23;20417;-73
2022/11/30 00:55:43;;;;;;;106.07;54.58;;;;;;;2.30;69.73;101648.97;6151770;23;20034;-73
2022/11/30 00:58:10;;;;;;;102.63;51.70;;;;;;;2.36;70.16;101649.50;6151858;23;20060;-72
2022/11/30 01:00:37;;;;;;;109.30;52.08;;;;;;;2.38;69.89;101652.94;6149191;23;20021;-72
2022/11/30 01:03:04;;;;;;;106.88;53.58;;;;;;;2.28;70.10;101653.53;6152282;23;20014;-72
2022/11/30 01:05:34;;;;;;;110.72;55.35;;;;;;;2.26;70.44;101653.59;6151286;23;20024;-72
2022/11/30 01:08:02;;;;;;;114.82;54.60;;;;;;;2.24;70.18;101660.78;6114894;23;20022;-72
2022/11/30 01:10:29;;;;;;;105.10;54.05;;;;;;;2.31;70.21;101656.84;6151815;23;20026;-72
2022/11/30 01:12:55;;;;;;;110.78;53.33;;;;;;;2.38;69.91;101658.22;6154298;23;20041;-73
2022/11/30 01:15:22;;;;;;;111.20;53.22;;;;;;;2.25;70.26;101651.88;6152668;23;20017;-73
2022/11/30 01:17:48;;;;;;;113.25;53.42;;;;;;;2.18;70.55;101655.81;6152751;23;20046;-73
2022/11/30 01:20:15;;;;;;;107.78;53.38;;;;;;;2.19;70.43;101658.34;6152194;23;20021;-73
2022/11/30 01:22:42;;;;;;;105.63;52.33;;;;;;;2.15;70.32;101664.75;6150662;23;20035;-73
2022/11/30 01:25:09;;;;;;;108.72;53.42;;;;;;;2.06;70.90;101659.09;6150948;23;20025;-73
2022/11/30 01:27:35;;;;;;;115.38;55.67;;;;;;;2.05;70.77;101668.00;6149362;23;20104;-72
2022/11/30 01:30:02;;;;;;;120.18;55.60;;;;;;;2.15;70.06;101670.06;6149753;23;20025;-72
2022/11/30 01:32:29;;;;;;;108.85;52.50;;;;;;;1.92;70.52;101671.31;6149825;23;20444;-72
2022/11/30 01:34:56;;;;;;;122.28;56.25;;;;;;;1.97;71.20;101665.75;6151471;23;20026;-73
2022/11/30 01:37:22;;;;;;;120.13;55.60;;;;;;;2.08;70.79;101673.13;6151684;23;20021;-72
2022/11/30 01:39:49;;;;;;;113.68;53.55;;;;;;;2.19;70.76;101666.31;6137613;23;20038;-74
2022/11/30 01:42:17;;;;;;;112.25;53.80;;;;;;;2.24;69.72;101665.22;6128363;23;20060;-74
2022/11/30 01:44:57;;;;;;;120.45;56.40;;;;;;;2.11;70.07;101663.22;6151398;23;20332;-74
2022/11/30 01:47:47;;;;;;;110.32;53.63;;;;;;;2.05;70.54;101674.13;6153103;23;20037;-73
2022/11/30 01:50:20;;;;;;;108.20;53.13;;;;;;;2.03;70.59;101675.19;6150327;23;20018;-72
2022/11/30 01:52:51;;;;;;;114.65;55.58;;;;;;;2.11;69.56;101663.22;6153564;23;20044;-73
2022/11/30 01:55:25;;;;;;;107.28;55.05;;;;;;;2.06;70.43;101673.22;6152428;23;20024;-74
2022/11/30 01:58:05;;;;;;;108.80;53.83;;;;;;;2.11;70.25;101671.16;6152705;23;20028;-74
2022/11/30 02:00:32;;;;;;;108.68;53.33;;;;;;;2.19;70.12;101668.94;6150758;23;20027;-73
2022/11/30 02:03:17;;;;;;;120.55;56.22;;;;;;;2.24;69.83;101676.66;6153747;23;20018;-73
2022/11/30 02:09:24;;;;;;;116.03;55.65;;;;;;;1.97;70.16;101679.00;6122852;23;20038;-73
2022/11/30 02:11:52;;;;;;;114.03;53.28;;;;;;;2.02;70.61;101686.66;6122692;23;20022;-73
2022/11/30 02:14:33;;;;;;;110.20;54.75;;;;;;;2.09;69.95;101680.13;6122678;23;20024;-73
2022/11/30 02:17:24;;;;;;;115.85;53.90;;;;;;;2.19;69.82;101673.41;6121638;23;20029;-72
2022/11/30 02:20:12;;;;;;;117.63;54.70;;;;;;;2.13;70.11;101673.72;6120574;23;20092;-73
2022/11/30 02:22:50;;;;;;;116.38;54.40;;;;;;;2.06;69.92;101674.97;6121417;23;20109;-73
2022/11/30 02:25:46;;;;;;;107.72;54.60;;;;;;;1.94;70.03;101672.06;6122599;23;20021;-73
2022/11/30 02:28:49;;;;;;;108.40;53.83;;;;;;;2.06;70.24;101680.28;6149864;23;20028;-73
2022/11/30 02:31:21;;;;;;;109.47;54.38;;;;;;;2.06;69.91;101685.56;6153168;23;20029;-73
2022/11/30 02:33:50;;;;;;;113.00;54.22;;;;;;;2.16;69.60;101679.69;6152889;23;20032;-74
2022/11/30 02:36:18;;;;;;;114.82;54.80;;;;;;;2.22;69.38;101682.97;6143822;23;20026;-73
2022/11/30 02:38:45;;;;;;;110.82;55.25;;;;;;;2.21;69.36;101681.28;6151744;23;20045;-73
2022/11/30 02:41:11;;;;;;;111.82;57.25;;;;;;;2.16;69.24;101681.50;6151897;23;20361;-73
2022/11/30 02:43:38;;;;;;;110.40;54.55;;;;;;;2.20;69.08;101680.41;6150926;23;20414;-73
2022/11/30 02:46:26;;;;;;;110.35;54.83;;;;;;;2.06;69.72;101680.28;6152554;23;20465;-73
2022/11/30 02:49:16;;;;;;;111.57;54.30;;;;;;;2.14;69.37;101678.09;6152242;23;20017;-73
2022/11/30 02:51:44;;;;;;;115.28;53.05;;;;;;;2.05;69.86;101675.94;6114540;23;20101;-72
2022/11/30 02:54:11;;;;;;;113.13;52.47;;;;;;;2.00;69.48;101672.69;6152095;23;20032;-73
2022/11/30 02:56:38;;;;;;;120.00;57.10;;;;;;;2.08;69.30;101675.78;6153169;23;20028;-72
2022/11/30 02:59:04;;;;;;;115.32;55.15;;;;;;;2.10;69.48;101681.84;6152367;23;20458;-71
2022/11/30 03:01:31;;;;;;;109.55;55.60;;;;;;;2.04;69.48;101687.47;6153457;23;20357;-73
2022/11/30 03:03:58;;;;;;;114.88;54.42;;;;;;;1.96;69.70;101679.94;6150436;23;20767;-73
2022/11/30 03:06:24;;;;;;;115.07;54.22;;;;;;;1.79;70.08;101688.72;6151724;23;20021;-74
2022/11/30 03:08:51;;;;;;;117.57;55.60;;;;;;;1.94;69.46;101685.28;6152312;23;20029;-74
2022/11/30 03:11:17;;;;;;;103.82;54.28;;;;;;;2.08;68.95;101689.00;6151546;23;20101;-74
2022/11/30 03:13:43;;;;;;;114.03;53.22;;;;;;;2.25;68.97;101693.41;6151915;23;20032;-74
2022/11/30 03:16:11;;;;;;;109.40;54.22;;;;;;;2.14;68.93;101686.88;6126209;23;20354;-74
2022/11/30 03:18:39;;;;;;;113.55;54.28;;;;;;;2.31;68.39;101685.13;6151903;23;20408;-73
2022/11/30 03:21:07;;;;;;;115.35;54.88;;;;;;;2.00;69.34;101688.56;6152200;23;20018;-73
2022/11/30 03:23:34;;;;;;;107.03;53.38;;;;;;;1.90;69.76;101691.66;6151335;23;20512;-73
2022/11/30 03:26:01;;;;;;;113.45;53.58;;;;;;;1.75;69.83;101689.81;6151242;23;20105;-73
2022/11/30 03:28:28;;;;;;;109.03;54.20;;;;;;;2.06;69.34;101697.03;6151568;23;20358;-73
2022/11/30 03:30:54;;;;;;;111.43;54.17;;;;;;;2.14;69.16;101696.63;6152674;23;20022;-74
2022/11/30 03:33:21;;;;;;;117.72;56.45;;;;;;;1.97;69.35;101689.56;6151773;23;20025;-73
2022/11/30 03:35:48;;;;;;;105.95;52.28;;;;;;;1.76;70.01;101686.22;6151547;23;20489;-73
2022/11/30 03:38:14;;;;;;;104.03;52.38;;;;;;;1.78;69.92;101694.06;6152291;23;20048;-73
2022/11/30 03:40:41;;;;;;;113.10;53.58;;;;;;;1.93;69.83;101693.31;6152538;23;20041;-73
2022/11/30 03:43:07;;;;;;;116.25;55.28;;;;;;;1.79;69.65;101693.16;6151632;23;20044;-73
2022/11/30 03:45:33;;;;;;;113.32;54.40;;;;;;;1.75;69.79;101702.16;6152546;23;20027;-73
2022/11/30 03:48:00;;;;;;;111.68;53.67;;;;;;;1.89;69.62;101699.69;6152456;23;20021;-73
2022/11/30 03:50:27;;;;;;;117.97;54.85;;;;;;;2.02;69.39;101699.91;6152480;23;20021;-73
2022/11/30 03:52:53;;;;;;;111.90;54.47;;;;;;;2.11;68.90;101704.72;6152524;23;20048;-73
2022/11/30 03:55:19;;;;;;;117.70;56.25;;;;;;;1.93;69.54;101699.47;6149013;23;20489;-73
2022/11/30 03:57:46;;;;;;;119.60;54.53;;;;;;;1.90;69.22;101704.03;6152276;23;20477;-73
2022/11/30 04:00:13;;;;;;;110.85;53.13;;;;;;;2.07;68.83;101711.13;6151573;23;20022;-73
2022/11/30 04:02:39;;;;;;;115.22;53.92;;;;;;;2.03;69.18;101710.44;6150501;23;20025;-72
2022/11/30 04:05:10;;;;;;;110.88;54.88;;;;;;;2.08;68.93;101710.19;6150966;23;20025;-74
2022/11/30 04:07:37;;;;;;;110.35;53.47;;;;;;;1.98;69.46;101708.94;6152311;23;20105;-72
2022/11/30 04:10:03;;;;;;;107.85;54.15;;;;;;;1.77;69.74;101713.53;6149995;23;20025;-72
2022/11/30 04:12:34;;;;;;;106.40;53.47;;;;;;;1.77;69.89;101708.25;6151291;23;20064;-73
2022/11/30 04:15:00;;;;;;;112.50;55.78;;;;;;;1.79;69.75;101715.19;6152219;23;20033;-73
2022/11/30 04:17:27;;;;;;;107.13;53.78;;;;;;;1.79;69.68;101720.47;6151629;23;20021;-73
2022/11/30 04:19:53;;;;;;;120.30;56.50;;;;;;;1.81;69.30;101712.44;6151836;23;20025;-73
2022/11/30 04:22:20;;;;;;;110.72;52.60;;;;;;;1.95;69.41;101712.59;6151159;23;20367;-73
2022/11/30 04:24:46;;;;;;;109.45;53.78;;;;;;;1.88;69.32;101714.69;6151215;23;20029;-73
2022/11/30 04:27:13;;;;;;;108.35;55.08;;;;;;;2.06;68.77;101712.03;6151495;23;20465;-73
2022/11/30 04:29:40;;;;;;;114.95;54.05;;;;;;;2.07;69.17;101719.06;6151792;23;20021;-73
2022/11/30 04:32:06;;;;;;;117.70;53.63;;;;;;;2.01;68.56;101722.88;6150287;23;20022;-73
2022/11/30 04:34:33;;;;;;;113.40;55.30;;;;;;;2.12;68.30;101730.25;6151937;23;20021;-73
2022/11/30 04:36:59;;;;;;;100.82;52.28;;;;;;;1.92;68.82;101729.53;6151817;23;20025;-73
2022/11/30 04:39:26;;;;;;;110.18;53.17;;;;;;;1.87;68.90;101731.50;6150152;23;20025;-73
2022/11/30 04:41:52;;;;;;;111.05;55.30;;;;;;;1.89;68.79;101734.94;6152052;23;20030;-73
2022/11/30 04:44:19;;;;;;;109.55;53.05;;;;;;;2.05;68.37;101728.88;6151259;23;20028;-73
2022/11/30 04:46:45;;;;;;;111.97;55.42;;;;;;;1.92;69.00;101739.19;6150776;23;20025;-73
2022/11/30 04:49:12;;;;;;;113.25;54.42;;;;;;;2.00;68.42;101744.16;6151366;23;20080;-73
2022/11/30 04:51:38;;;;;;;109.75;53.72;;;;;;;1.94;68.73;101740.88;6150750;23;20024;-73
2022/11/30 04:54:05;;;;;;;112.90;55.20;;;;;;;1.94;68.41;101738.22;6150221;23;20028;-73
2022/11/30 04:56:31;;;;;;;107.22;54.22;;;;;;;1.88;69.04;101743.78;6152482;23;20025;-73
2022/11/30 04:59:00;;;;;;;116.00;55.63;;;;;;;1.90;68.62;101743.72;6151389;23;20018;-73
2022/11/30 05:01:27;;;;;;;104.85;53.22;;;;;;;1.93;68.70;101741.81;6150665;23;20028;-73
2022/11/30 05:03:53;;;;;;;107.50;53.22;;;;;;;1.90;68.49;101736.63;6151785;23;20028;-72
2022/11/30 05:06:20;;;;;;;112.85;54.63;;;;;;;1.75;69.55;101737.44;6151662;23;20040;-72
2022/11/30 05:08:46;;;;;;;114.78;55.83;;;;;;;1.85;68.74;101746.59;6150524;23;20281;-73
2022/11/30 05:11:12;;;;;;;112.13;55.97;;;;;;;1.91;68.83;101740.97;6150577;23;20028;-72
2022/11/30 05:13:39;;;;;;;112.88;54.05;;;;;;;1.83;68.85;101745.81;6151656;23;20043;-72
2022/11/30 05:16:06;;;;;;;107.53;53.83;;;;;;;1.99;68.24;101745.91;6153816;23;20017;-72
2022/11/30 05:18:32;;;;;;;112.57;54.65;;;;;;;1.85;68.57;101754.53;6153392;23;20338;-72
2022/11/30 05:20:59;;;;;;;110.38;55.20;;;;;;;1.93;68.11;101757.69;6153244;23;20018;-73
2022/11/30 05:23:25;;;;;;;114.53;56.08;;;;;;;1.95;68.69;101766.38;6152891;23;20025;-73
2022/11/30 05:25:52;;;;;;;113.93;57.75;;;;;;;2.00;67.99;101762.66;6153140;23;20026;-73
2022/11/30 05:28:18;;;;;;;113.53;53.85;;;;;;;2.01;68.15;101759.94;6152239;23;20028;-73
2022/11/30 05:30:45;;;;;;;112.65;55.58;;;;;;;2.12;67.95;101767.31;6152187;23;20029;-72
2022/11/30 05:33:11;;;;;;;111.28;55.92;;;;;;;1.97;68.30;101766.31;6153011;23;20021;-73
2022/11/30 05:35:38;;;;;;;115.40;55.53;;;;;;;2.08;67.90;101758.69;6153720;23;20022;-72
2022/11/30 05:38:05;;;;;;;108.05;53.28;;;;;;;2.05;68.07;101766.78;6152754;23;20026;-72
2022/11/30 05:40:32;;;;;;;110.57;54.13;;;;;;;2.11;67.89;101771.75;6152613;23;20025;-73
2022/11/30 05:43:00;;;;;;;104.85;53.28;;;;;;;2.01;67.71;101774.97;6153811;23;20021;-72
2022/11/30 05:45:27;;;;;;;106.85;54.67;;;;;;;2.04;67.62;101769.50;6153212;23;20029;-73
2022/11/30 05:47:54;;;;;;;111.35;55.25;;;;;;;1.95;68.02;101770.81;6152424;23;20035;-73
2022/11/30 05:50:20;;;;;;;111.72;54.45;;;;;;;2.07;67.68;101775.50;6152780;23;20097;-72
2022/11/30 05:52:47;;;;;;;107.10;52.90;;;;;;;1.95;67.92;101776.97;6153485;23;20458;-73
2022/11/30 05:55:13;;;;;;;110.45;54.55;;;;;;;2.08;67.55;101782.50;6153073;23;20014;-71
2022/11/30 05:57:40;;;;;;;104.80;54.83;;;;;;;1.92;68.15;101779.81;6152174;23;20044;-73
2022/11/30 06:00:08;;;;;;;104.28;53.03;;;;;;;1.92;68.37;101785.09;6122986;23;20017;-73
2022/11/30 06:02:34;;;;;;;109.05;54.60;;;;;;;2.03;67.63;101779.25;6123549;23;20447;-72
2022/11/30 06:05:01;;;;;;;106.30;53.55;;;;;;;2.13;68.04;101784.91;6123778;23;20018;-73
2022/11/30 06:07:28;;;;;;;110.80;54.30;;;;;;;2.12;67.47;101792.00;6123625;23;20052;-73
2022/11/30 06:09:54;;;;;;;106.57;54.08;;;;;;;2.08;67.57;101786.94;6123625;23;20029;-73
2022/11/30 06:12:21;;;;;;;113.65;53.90;;;;;;;1.95;68.08;101794.66;6123874;23;20028;-73
2022/11/30 06:14:49;;;;;;;112.35;55.08;;;;;;;2.04;67.21;101794.19;6123168;23;20037;-73
2022/11/30 06:17:16;;;;;;;107.95;53.35;;;;;;;1.98;67.78;101791.00;6122081;23;20108;-72
2022/11/30 06:19:42;;;;;;;109.88;54.40;;;;;;;2.06;67.27;101784.38;6123192;23;20026;-72
2022/11/30 06:22:09;;;;;;;98.47;49.80;;;;;;;2.09;67.53;101797.44;6122621;23;20358;-73
2022/11/30 06:24:35;;;;;;;109.07;55.78;;;;;;;2.12;67.12;101796.44;6123828;23;20022;-74
2022/11/30 06:27:02;;;;;;;110.63;54.10;;;;;;;1.97;67.49;101794.59;6096647;23;20028;-72
2022/11/30 06:29:28;;;;;;;111.28;53.17;;;;;;;1.92;67.69;101787.75;6123850;23;20029;-72
2022/11/30 06:31:55;;;;;;;105.43;52.80;;;;;;;1.92;68.00;101793.03;6123284;23;20188;-72
2022/11/30 06:34:29;;;;;;;97.78;52.17;;;;;;;1.89;67.31;101803.75;6099851;23;20025;-75
2022/11/30 06:37:17;;;;;;;103.18;52.17;;;;;;;1.82;67.89;101797.03;6092358;23;20022;-75
2022/11/30 06:39:47;;;;;;;104.78;52.58;;;;;;;1.92;67.58;101798.31;6122206;23;20037;-75
2022/11/30 06:42:35;;;;;;;106.88;52.85;;;;;;;1.88;68.00;101807.28;6097292;23;20022;-75
2022/11/30 06:45:03;;;;;;;102.13;50.97;;;;;;;2.09;67.43;101810.66;6106810;23;20346;-75
2022/11/30 06:47:30;;;;;;;102.05;51.63;;;;;;;2.02;67.21;101801.34;6121551;23;20084;-75
2022/11/30 06:49:56;;;;;;;106.72;52.97;;;;;;;2.08;67.16;101814.25;6121515;23;20053;-75
2022/11/30 06:52:23;;;;;;;113.68;52.63;;;;;;;1.85;67.22;101823.31;6084746;23;20097;-75
2022/11/30 06:54:50;;;;;;;100.72;52.25;;;;;;;1.77;68.30;101824.66;6117709;23;20092;-75
2022/11/30 06:57:17;;;;;;;104.22;52.53;;;;;;;1.88;67.65;101817.03;6121540;23;20025;-75
2022/11/30 06:59:45;;;;;;;107.97;53.03;;;;;;;1.92;67.70;101822.16;6121731;23;20038;-75
2022/11/30 07:02:14;;;;;;;106.43;51.42;;;;;;;1.76;68.06;101822.94;6120801;23;20351;-75
2022/11/30 07:04:44;;;;;;;117.18;54.05;;;;;;;1.87;67.84;101829.41;6121674;23;20022;-75
2022/11/30 07:07:11;;;;;;;105.80;52.80;;;;;;;1.78;68.49;101832.50;6121275;23;20398;-76
2022/11/30 07:09:38;;;;;;;101.85;51.20;;;;;;;1.64;67.92;101825.25;6117559;23;20032;-75
2022/11/30 07:12:05;;;;;;;104.18;51.97;;;;;;;1.81;68.11;101831.50;6121566;23;20021;-75
2022/11/30 07:14:32;;;;;;;111.43;50.95;;;;;;;1.77;67.85;101836.09;6118939;23;20036;-75
2022/11/30 07:17:03;;;;;;;107.55;51.95;;;;;;;1.85;67.67;101836.56;6121169;23;20025;-75
2022/11/30 07:19:33;;;;;;;106.28;51.55;;;;;;;1.92;67.77;101838.03;6102150;23;20018;-75
2022/11/30 07:22:03;;;;;;;104.82;53.83;;;;;;;1.94;67.67;101836.13;6095810;23;20394;-75
2022/11/30 07:27:25;;;;;;;110.10;52.83;;;;;;;1.94;67.18;101844.06;6067262;23;20026;-75
2022/11/30 07:30:18;;;;;;;106.80;52.17;;;;;;;2.01;66.82;101847.28;6119589;23;20534;-75
2022/11/30 07:33:11;;;;;;;105.97;51.47;;;;;;;2.12;66.90;101846.72;6086476;23;20104;-75
2022/11/30 07:35:47;;;;;;;101.05;49.78;;;;;;;2.12;66.39;101850.22;6122553;23;20029;-75
2022/11/30 07:38:18;;;;;;;97.90;50.83;;;;;;;2.15;66.65;101855.38;6149091;23;20354;-75
2022/11/30 07:40:45;;;;;;;101.57;51.45;;;;;;;2.20;66.13;101857.81;6149260;23;20024;-75
2022/11/30 07:43:12;;;;;;;103.30;51.67;;;;;;;2.13;66.92;101859.91;6152158;23;20027;-75
2022/11/30 07:45:41;;;;;;;99.40;50.28;;;;;;;2.01;66.54;101855.22;6148049;23;20022;-75
2022/11/30 07:48:08;;;;;;;99.65;49.05;;;;;;;2.03;66.97;101866.59;6144248;23;20343;-75
2022/11/30 07:50:35;;;;;;;108.72;52.47;;;;;;;2.11;66.69;101860.91;6150190;23;20021;-75
2022/11/30 07:53:02;;;;;;;99.95;49.90;;;;;;;2.10;66.32;101861.84;6151302;23;20327;-75
2022/11/30 07:55:28;;;;;;;105.50;52.28;;;;;;;2.05;66.84;101861.22;6149628;23;20068;-75
2022/11/30 07:57:55;;;;;;;106.00;51.17;;;;;;;2.14;66.44;101860.75;6118946;23;20333;-75
2022/11/30 08:00:21;;;;;;;98.85;49.60;;;;;;;2.01;66.83;101864.94;6126599;23;20402;-75
2022/11/30 08:02:49;;;;;;;101.50;49.75;;;;;;;2.23;65.92;101860.25;6115464;23;20073;-75
2022/11/30 08:05:16;;;;;;;100.03;50.03;;;;;;;2.19;65.63;101864.00;6144104;23;20024;-75
2022/11/30 08:07:44;;;;;;;106.03;49.53;;;;;;;2.34;65.24;101863.25;6150841;23;20084;-74
2022/11/30 08:10:11;;;;;;;102.55;50.83;;;;;;;2.34;65.60;101855.31;6141316;23;20051;-75
2022/11/30 08:12:38;;;;;;;99.53;51.15;;;;;;;2.06;66.69;101863.78;6150320;23;20057;-76
2022/11/30 08:15:06;;;;;;;101.50;50.55;;;;;;;2.29;66.17;101865.25;6146920;23;20032;-75
2022/11/30 08:17:54;;;;;;;101.05;49.20;;;;;;;2.15;65.63;101862.47;6140225;23;20025;-75
2022/11/30 08:20:21;;;;;;;99.40;49.08;;;;;;;2.26;65.79;101872.50;6135043;23;20358;-75
2022/11/30 08:22:48;;;;;;;97.35;48.60;;;;;;;2.34;65.44;101876.50;6123862;23;20347;-74
2022/11/30 08:25:15;;;;;;;97.28;48.15;;;;;;;2.25;65.58;101878.75;6149424;23;20014;-75
2022/11/30 08:27:42;;;;;;;99.55;49.15;;;;;;;2.30;65.88;101869.59;6151130;23;20108;-75
2022/11/30 08:30:09;;;;;;;111.32;48.63;;;;;;;2.34;65.52;101878.25;6147537;23;20111;-76
2022/11/30 08:32:35;;;;;;;90.68;46.20;;;;;;;2.46;65.33;101884.72;6139655;23;20088;-75
2022/11/30 08:35:05;;;;;;;93.32;47.03;;;;;;;2.44;65.34;101887.44;6148573;23;20359;-75
2022/11/30 08:37:35;;;;;;;95.45;46.67;;;;;;;2.58;65.16;101884.97;6149770;23;20021;-75
2022/11/30 08:40:03;;;;;;;100.93;48.13;;;;;;;2.45;64.50;101886.53;6139976;23;20366;-75
2022/11/30 08:42:29;;;;;;;97.13;46.42;;;;;;;2.67;64.52;101884.47;6140320;23;20096;-75
2022/11/30 08:44:56;;;;;;;93.75;47.28;;;;;;;2.43;64.54;101883.94;6143681;23;20032;-75
2022/11/30 08:47:23;;;;;;;88.55;45.30;;;;;;;2.59;64.58;101888.47;6149643;23;20021;-75
2022/11/30 08:50:00;;;;;;;98.07;47.85;;;;;;;2.56;64.61;101893.91;6150035;23;20056;-75
2022/11/30 08:52:55;;;;;;;88.55;46.30;;;;;;;2.48;64.68;101894.31;6146011;23;20022;-75
2022/11/30 08:55:27;;;;;;;89.97;45.20;;;;;;;2.54;64.44;101893.97;6121802;23;20017;-75
2022/11/30 08:58:10;;;;;;;96.82;45.83;;;;;;;2.59;64.38;101893.75;6146140;23;20105;-75
2022/11/30 09:00:37;;;;;;;92.68;46.60;;;;;;;2.74;63.71;101892.94;6149997;23;20080;-75
2022/11/30 09:03:04;;;;;;;88.47;45.55;;;;;;;2.53;64.41;101899.38;6136396;23;20359;-76
2022/11/30 09:05:34;;;;;;;97.03;45.42;;;;;;;2.61;64.01;101899.81;6117405;23;20026;-75
2022/11/30 09:08:00;;;;;;;91.25;47.15;;;;;;;2.66;63.97;101909.25;6122967;23;20141;-75
2022/11/30 09:10:27;;;;;;;93.63;45.75;;;;;;;2.58;64.21;101897.31;6120916;23;20045;-75
2022/11/30 09:12:54;;;;;;;93.95;45.75;;;;;;;2.45;64.18;101897.13;6122341;23;20102;-75
2022/11/30 09:15:21;;;;;;;90.93;44.53;;;;;;;2.44;64.20;101895.38;6122676;23;20033;-75
2022/11/30 09:17:48;;;;;;;93.68;45.80;;;;;;;2.29;65.35;101898.81;6123722;23;20033;-75
2022/11/30 09:20:14;;;;;;;96.32;47.08;;;;;;;2.48;64.42;101898.72;6124369;23;20032;-75
2022/11/30 09:22:41;;;;;;;100.47;47.05;;;;;;;2.41;64.69;101896.41;6122188;23;20040;-75
2022/11/30 09:25:09;;;;;;;95.43;47.47;;;;;;;2.50;64.36;101900.38;6122064;23;20048;-75
2022/11/30 09:27:36;;;;;;;93.65;45.90;;;;;;;2.56;64.18;101896.56;6107875;23;20014;-75
2022/11/30 09:30:03;;;;;;;92.97;46.30;;;;;;;2.50;64.41;101894.22;6120430;23;20018;-75
2022/11/30 09:32:30;;;;;;;95.60;45.60;;;;;;;2.43;64.43;101894.53;6122820;23;20046;-75
2022/11/30 09:35:02;;;;;;;97.18;48.30;;;;;;;2.63;63.70;101896.16;6097849;23;20456;-75
2022/11/30 09:37:39;;;;;;;91.28;46.72;;;;;;;2.79;63.61;101901.53;6108490;23;20455;-75
2022/11/30 09:40:16;;;;;;;90.43;47.65;;;;;;;2.88;63.34;101901.00;6115769;23;20032;-75
2022/11/30 09:43:00;;;;;;;85.40;44.63;;;;;;;2.84;62.99;101903.91;6122628;23;20026;-75
2022/11/30 09:45:33;;;;;;;89.93;45.13;;;;;;;2.76;62.88;101904.34;6109781;23;20030;-75
2022/11/30 09:48:40;;;;;;;87.40;44.25;;;;;;;2.72;63.14;101901.91;6121350;23;20033;-75
2022/11/30 09:51:14;;;;;;;102.25;46.60;;;;;;;2.85;63.17;101890.56;6112371;23;20032;-75
2022/11/30 09:54:07;;;;;;;86.30;44.85;;;;;;;2.74;63.25;101898.25;6099036;23;20025;-75
2022/11/30 09:56:38;;;;;;;92.40;44.33;;;;;;;2.70;63.55;101891.41;6106787;23;20077;-75
2022/11/30 09:59:31;;;;;;;88.50;42.40;;;;;;;2.65;63.48;101893.41;6121487;23;20026;-75
2022/11/30 10:02:12;;;;;;;109.10;49.30;;;;;;;2.69;62.86;101894.13;6122160;23;20646;-75
2022/11/30 10:04:40;;;;;;;;;;;;;;;3.06;62.37;101887.72;6130348;23;20579;-76
2022/11/30 10:07:15;;;;;;;103.05;47.55;;;;;;;3.09;62.16;101891.06;6126327;23;20330;-75
2022/11/30 10:09:54;;;;;;;85.10;43.42;;;;;;;2.91;62.36;101889.41;6148985;23;20045;-75
2022/11/30 10:12:56;;;;;;;89.05;44.70;;;;;;;3.08;61.93;101896.47;6151228;23;20083;-75
2022/11/30 10:15:32;;;;;;;84.40;43.45;;;;;;;2.99;62.27;101894.28;6150773;23;20097;-75
2022/11/30 10:18:43;;;;;;;85.60;42.83;;;;;;;3.07;62.19;101890.31;6149001;23;20034;-75
2022/11/30 10:21:31;;;;;;;87.38;43.70;;;;;;;3.28;61.41;101890.06;6110763;23;20025;-75
2022/11/30 10:24:16;;;;;;;88.63;46.30;;;;;;;3.27;61.89;101891.84;6150411;23;20100;-75
2022/11/30 10:26:54;;;;;;;85.60;44.78;;;;;;;3.04;61.81;101889.59;6150790;23;20405;-75
2022/11/30 10:29:32;;;;;;;92.00;44.58;;;;;;;3.03;62.21;101894.06;6125971;23;20353;-75
2022/11/30 10:32:01;;;;;;;98.68;44.08;;;;;;;2.96;62.30;101889.16;6150609;23;20362;-75
2022/11/30 10:34:34;;;;;;;97.85;44.05;;;;;;;3.00;61.81;101894.22;6151696;23;20083;-75
2022/11/30 10:37:07;;;;;;;87.45;43.50;;;;;;;3.30;61.67;101888.19;6150809;23;20098;-75
2022/11/30 10:39:41;;;;;;;85.88;44.53;;;;;;;3.33;61.05;101886.22;6150946;23;20022;-75
2022/11/30 10:42:31;;;;;;;98.85;48.22;;;;;;;3.19;61.61;101888.75;6125841;23;20026;-75
2022/11/30 10:45:02;;;;;;;85.60;44.50;;;;;;;3.48;61.11;101894.25;6115781;23;20422;-75
2022/11/30 10:47:35;;;;;;;92.43;45.60;;;;;;;3.30;61.47;101891.69;6120915;23;20025;-75
2022/11/30 10:50:06;;;;;;;96.00;46.80;;;;;;;3.44;60.64;101892.72;6113008;23;20100;-75
2022/11/30 10:52:43;;;;;;;87.45;45.70;;;;;;;3.17;61.25;101893.31;6114219;23;20029;-75
2022/11/30 10:55:16;;;;;;;88.32;44.55;;;;;;;3.28;61.21;101892.72;6121772;23;20034;-75
2022/11/30 10:57:46;;;;;;;92.20;46.60;;;;;;;3.44;60.90;101896.22;6122318;23;20408;-75
2022/11/30 11:00:17;;;;;;;87.85;45.35;;;;;;;3.48;60.67;101894.25;6122396;23;20077;-75
2022/11/30 11:02:46;;;;;;;86.15;44.10;;;;;;;3.09;61.47;101884.91;6122692;23;20347;-75
2022/11/30 11:05:21;;;;;;;85.18;44.88;;;;;;;2.94;62.57;101885.75;6121697;23;20044;-75
2022/11/30 11:08:15;;;;;;;89.82;43.97;;;;;;;2.80;62.27;101876.72;6147073;23;20025;-75
2022/11/30 11:10:46;;;;;;;88.85;44.53;;;;;;;2.89;62.27;101886.84;6151546;23;20098;-75
2022/11/30 11:13:17;;;;;;;85.20;44.40;;;;;;;2.78;62.67;101885.69;6140353;23;20096;-75
2022/11/30 11:15:59;;;;;;;92.70;45.83;;;;;;;2.97;61.75;101899.69;6152657;23;20025;-75
2022/11/30 11:18:28;;;;;;;88.88;44.35;;;;;;;2.97;62.16;101890.88;6149032;23;20026;-75
2022/11/30 11:21:14;;;;;;;91.93;45.72;;;;;;;3.10;61.29;101891.91;6135862;23;20031;-75
2022/11/30 11:23:43;;;;;;;88.57;43.90;;;;;;;3.01;62.04;101892.44;6152248;23;20359;-75
2022/11/30 11:26:21;;;;;;;84.07;43.67;;;;;;;3.09;62.03;101898.16;6148324;23;20028;-76
2022/11/30 11:28:50;;;;;;;88.25;44.88;;;;;;;3.13;61.67;101905.88;6129216;23;20029;-76
2022/11/30 11:31:42;;;;;;;81.43;43.72;;;;;;;3.01;61.48;101900.38;6130589;23;20088;-75
2022/11/30 11:34:34;;;;;;;82.97;44.28;;;;;;;3.10;61.65;101899.84;6149369;23;20035;-75